Terminal Aerodrome Forecast
Issued by NWS Austin/San Antonio, TX

Home | Current Version | Previous Version | Text Only | Print | Product List | Glossary On
Versions: 1 2 3 4 5 6 7 8 9 10 11 12 13 14 15 16 17 18 19 20 21 22
857
FTUS44 KEWX 301129
TAFSAT
TAF
KSAT 301129Z 3012/0118 33005KT P6SM FEW050 BKN090
     FM301300 01005KT P6SM BKN035
     FM302100 08005KT P6SM SCT250
     FM011000 04005KT P6SM BKN015=

USA.gov is the U.S. government's official web portal to all federal, state and local government web resources and services.